sensor_id;sensor_type;location;lat;lon;timestamp;P1;durP1;ratioP1;P2;durP2;ratioP2
41263;SDS011;26998;48.714;9.414;2024-01-15T00:01:33;68.82;;;35.67;;
41263;SDS011;26998;48.714;9.414;2024-01-15T00:04:01;70.13;;;35.72;;
41263;SDS011;26998;48.714;9.414;2024-01-15T00:06:28;65.70;;;34.95;;
41263;SDS011;26998;48.714;9.414;2024-01-15T00:08:55;71.30;;;37.42;;
41263;SDS011;26998;48.714;9.414;2024-01-15T00:11:24;67.77;;;34.27;;
41263;SDS011;26998;48.714;9.414;2024-01-15T00:13:53;70.77;;;36.53;;
41263;SDS011;26998;48.714;9.414;2024-01-15T00:16:20;66.20;;;33.90;;
41263;SDS011;26998;48.714;9.414;2024-01-15T00:18:48;75.63;;;38.85;;
41263;SDS011;26998;48.714;9.414;2024-01-15T00:21:15;69.83;;;36.40;;
41263;SDS011;26998;48.714;9.414;2024-01-15T00:23:44;71.22;;;35.10;;
41263;SDS011;26998;48.714;9.414;2024-01-15T00:26:11;63.72;;;32.60;;
41263;SDS011;26998;48.714;9.414;2024-01-15T00:28:38;63.10;;;32.38;;
41263;SDS011;26998;48.714;9.414;2024-01-15T00:31:07;66.82;;;33.42;;
41263;SDS011;26998;48.714;9.414;2024-01-15T00:33:36;68.50;;;35.80;;
41263;SDS011;26998;48.714;9.414;2024-01-15T00:36:03;66.45;;;34.38;;
41263;SDS011;26998;48.714;9.414;2024-01-15T00:38:33;68.43;;;34.25;;
41263;SDS011;26998;48.714;9.414;2024-01-15T00:41:03;68.72;;;35.58;;
41263;SDS011;26998;48.714;9.414;2024-01-15T00:43:33;62.85;;;31.67;;
41263;SDS011;26998;48.714;9.414;2024-01-15T00:46:03;66.57;;;34.95;;
41263;SDS011;26998;48.714;9.414;2024-01-15T00:48:32;67.35;;;35.40;;
41263;SDS011;26998;48.714;9.414;2024-01-15T00:51:09;62.17;;;33.03;;
41263;SDS011;26998;48.714;9.414;2024-01-15T00:53:35;57.80;;;30.02;;
41263;SDS011;26998;48.714;9.414;2024-01-15T00:56:04;62.95;;;33.40;;
41263;SDS011;26998;48.714;9.414;2024-01-15T00:58:31;61.88;;;32.60;;
41263;SDS011;26998;48.714;9.414;2024-01-15T01:00:58;61.15;;;32.40;;
41263;SDS011;26998;48.714;9.414;2024-01-15T01:03:24;69.00;;;35.55;;
41263;SDS011;26998;48.714;9.414;2024-01-15T01:05:51;59.97;;;31.47;;
41263;SDS011;26998;48.714;9.414;2024-01-15T01:08:18;60.58;;;31.60;;
41263;SDS011;26998;48.714;9.414;2024-01-15T01:10:44;55.67;;;30.77;;
41263;SDS011;26998;48.714;9.414;2024-01-15T01:13:11;59.80;;;32.25;;
41263;SDS011;26998;48.714;9.414;2024-01-15T01:15:38;62.80;;;32.38;;
41263;SDS011;26998;48.714;9.414;2024-01-15T01:18:07;65.80;;;33.65;;
41263;SDS011;26998;48.714;9.414;2024-01-15T01:20:35;64.72;;;33.10;;
41263;SDS011;26998;48.714;9.414;2024-01-15T01:23:01;56.05;;;30.20;;
41263;SDS011;26998;48.714;9.414;2024-01-15T01:25:32;61.33;;;32.65;;
41263;SDS011;26998;48.714;9.414;2024-01-15T01:27:59;55.15;;;30.55;;
41263;SDS011;26998;48.714;9.414;2024-01-15T01:30:25;56.78;;;30.40;;
41263;SDS011;26998;48.714;9.414;2024-01-15T01:32:54;57.05;;;29.80;;
41263;SDS011;26998;48.714;9.414;2024-01-15T01:35:21;51.88;;;29.52;;
41263;SDS011;26998;48.714;9.414;2024-01-15T01:37:51;54.70;;;29.03;;
41263;SDS011;26998;48.714;9.414;2024-01-15T01:40:18;52.58;;;28.63;;
41263;SDS011;26998;48.714;9.414;2024-01-15T01:42:45;52.63;;;27.60;;
41263;SDS011;26998;48.714;9.414;2024-01-15T01:45:14;44.80;;;23.93;;
41263;SDS011;26998;48.714;9.414;2024-01-15T01:47:41;45.25;;;24.33;;
41263;SDS011;26998;48.714;9.414;2024-01-15T01:50:08;42.83;;;22.77;;
41263;SDS011;26998;48.714;9.414;2024-01-15T01:52:35;34.00;;;18.23;;
41263;SDS011;26998;48.714;9.414;2024-01-15T01:55:02;35.97;;;20.80;;
41263;SDS011;26998;48.714;9.414;2024-01-15T01:57:30;40.70;;;20.77;;
41263;SDS011;26998;48.714;9.414;2024-01-15T02:00:01;38.08;;;19.70;;
41263;SDS011;26998;48.714;9.414;2024-01-15T02:02:30;37.08;;;20.00;;
41263;SDS011;26998;48.714;9.414;2024-01-15T02:04:58;32.17;;;17.23;;
41263;SDS011;26998;48.714;9.414;2024-01-15T02:07:25;32.35;;;17.50;;
41263;SDS011;26998;48.714;9.414;2024-01-15T02:09:52;35.13;;;19.20;;
41263;SDS011;26998;48.714;9.414;2024-01-15T02:12:19;32.58;;;17.95;;
41263;SDS011;26998;48.714;9.414;2024-01-15T02:14:46;30.40;;;17.15;;
41263;SDS011;26998;48.714;9.414;2024-01-15T02:17:15;25.95;;;15.23;;
41263;SDS011;26998;48.714;9.414;2024-01-15T02:19:42;24.63;;;14.23;;
41263;SDS011;26998;48.714;9.414;2024-01-15T02:22:09;26.40;;;15.05;;
41263;SDS011;26998;48.714;9.414;2024-01-15T02:24:35;25.42;;;14.63;;
41263;SDS011;26998;48.714;9.414;2024-01-15T02:27:02;26.67;;;14.82;;
41263;SDS011;26998;48.714;9.414;2024-01-15T02:29:29;23.95;;;13.90;;
41263;SDS011;26998;48.714;9.414;2024-01-15T02:31:55;26.25;;;14.10;;
41263;SDS011;26998;48.714;9.414;2024-01-15T02:34:22;26.10;;;14.48;;
41263;SDS011;26998;48.714;9.414;2024-01-15T02:36:48;21.50;;;12.68;;
41263;SDS011;26998;48.714;9.414;2024-01-15T02:39:15;22.85;;;12.70;;
41263;SDS011;26998;48.714;9.414;2024-01-15T02:41:42;22.03;;;12.33;;
41263;SDS011;26998;48.714;9.414;2024-01-15T02:44:09;26.88;;;14.60;;
41263;SDS011;26998;48.714;9.414;2024-01-15T02:46:35;24.70;;;14.63;;
41263;SDS011;26998;48.714;9.414;2024-01-15T02:49:02;25.10;;;14.35;;
41263;SDS011;26998;48.714;9.414;2024-01-15T02:51:29;25.65;;;14.27;;
41263;SDS011;26998;48.714;9.414;2024-01-15T02:53:55;23.52;;;12.90;;
41263;SDS011;26998;48.714;9.414;2024-01-15T02:56:22;24.52;;;14.35;;
41263;SDS011;26998;48.714;9.414;2024-01-15T02:58:52;24.98;;;13.63;;
41263;SDS011;26998;48.714;9.414;2024-01-15T03:01:19;24.10;;;13.60;;
41263;SDS011;26998;48.714;9.414;2024-01-15T03:03:47;24.08;;;13.43;;
41263;SDS011;26998;48.714;9.414;2024-01-15T03:06:14;23.23;;;13.00;;
41263;SDS011;26998;48.714;9.414;2024-01-15T03:08:40;24.85;;;13.27;;
41263;SDS011;26998;48.714;9.414;2024-01-15T03:11:07;25.30;;;13.43;;
41263;SDS011;26998;48.714;9.414;2024-01-15T03:13:35;25.05;;;13.55;;
41263;SDS011;26998;48.714;9.414;2024-01-15T03:16:03;22.88;;;13.52;;
41263;SDS011;26998;48.714;9.414;2024-01-15T03:18:31;24.10;;;12.95;;
41263;SDS011;26998;48.714;9.414;2024-01-15T03:20:58;21.40;;;12.60;;
41263;SDS011;26998;48.714;9.414;2024-01-15T03:23:27;24.77;;;13.70;;
41263;SDS011;26998;48.714;9.414;2024-01-15T03:25:54;22.05;;;12.20;;
41263;SDS011;26998;48.714;9.414;2024-01-15T03:28:20;20.85;;;11.43;;
41263;SDS011;26998;48.714;9.414;2024-01-15T03:30:47;22.98;;;13.43;;
41263;SDS011;26998;48.714;9.414;2024-01-15T03:33:14;23.50;;;12.93;;
41263;SDS011;26998;48.714;9.414;2024-01-15T03:35:41;21.42;;;12.35;;
41263;SDS011;26998;48.714;9.414;2024-01-15T03:38:08;23.42;;;13.07;;
41263;SDS011;26998;48.714;9.414;2024-01-15T03:40:34;18.42;;;11.18;;
41263;SDS011;26998;48.714;9.414;2024-01-15T03:43:01;25.30;;;12.95;;
41263;SDS011;26998;48.714;9.414;2024-01-15T03:45:28;24.48;;;13.07;;
41263;SDS011;26998;48.714;9.414;2024-01-15T03:47:55;20.52;;;12.07;;
41263;SDS011;26998;48.714;9.414;2024-01-15T03:50:21;24.30;;;13.82;;
41263;SDS011;26998;48.714;9.414;2024-01-15T03:52:48;20.48;;;10.95;;
41263;SDS011;26998;48.714;9.414;2024-01-15T03:55:18;21.33;;;12.15;;
41263;SDS011;26998;48.714;9.414;2024-01-15T03:57:44;22.02;;;12.48;;
41263;SDS011;26998;48.714;9.414;2024-01-15T04:00:11;18.27;;;10.48;;
41263;SDS011;26998;48.714;9.414;2024-01-15T04:02:38;17.33;;;10.32;;
41263;SDS011;26998;48.714;9.414;2024-01-15T04:05:11;19.85;;;11.10;;
41263;SDS011;26998;48.714;9.414;2024-01-15T04:07:38;23.15;;;12.00;;
41263;SDS011;26998;48.714;9.414;2024-01-15T04:10:05;22.73;;;13.15;;
41263;SDS011;26998;48.714;9.414;2024-01-15T04:12:32;21.08;;;12.40;;
41263;SDS011;26998;48.714;9.414;2024-01-15T04:14:58;16.70;;;9.50;;
41263;SDS011;26998;48.714;9.414;2024-01-15T04:17:25;23.00;;;12.43;;
41263;SDS011;26998;48.714;9.414;2024-01-15T04:19:53;20.70;;;11.82;;
41263;SDS011;26998;48.714;9.414;2024-01-15T04:22:20;18.87;;;11.43;;
41263;SDS011;26998;48.714;9.414;2024-01-15T04:24:46;22.23;;;12.73;;
41263;SDS011;26998;48.714;9.414;2024-01-15T04:27:13;22.80;;;12.63;;
41263;SDS011;26998;48.714;9.414;2024-01-15T04:29:40;23.37;;;12.83;;
41263;SDS011;26998;48.714;9.414;2024-01-15T04:32:07;24.08;;;13.65;;
41263;SDS011;26998;48.714;9.414;2024-01-15T04:34:34;21.95;;;12.05;;
41263;SDS011;26998;48.714;9.414;2024-01-15T04:37:03;21.33;;;11.90;;
41263;SDS011;26998;48.714;9.414;2024-01-15T04:39:30;25.17;;;14.43;;
41263;SDS011;26998;48.714;9.414;2024-01-15T04:42:00;22.97;;;13.13;;
41263;SDS011;26998;48.714;9.414;2024-01-15T04:44:29;25.65;;;13.38;;
41263;SDS011;26998;48.714;9.414;2024-01-15T04:46:56;27.60;;;14.70;;
41263;SDS011;26998;48.714;9.414;2024-01-15T04:49:22;28.40;;;15.10;;
41263;SDS011;26998;48.714;9.414;2024-01-15T04:51:49;23.13;;;13.18;;
41263;SDS011;26998;48.714;9.414;2024-01-15T04:54:15;23.98;;;13.75;;
41263;SDS011;26998;48.714;9.414;2024-01-15T04:56:44;26.67;;;14.15;;
41263;SDS011;26998;48.714;9.414;2024-01-15T04:59:11;27.85;;;14.18;;
41263;SDS011;26998;48.714;9.414;2024-01-15T05:01:38;25.77;;;14.13;;
41263;SDS011;26998;48.714;9.414;2024-01-15T05:04:05;27.75;;;14.80;;
41263;SDS011;26998;48.714;9.414;2024-01-15T05:06:32;28.17;;;14.73;;
41263;SDS011;26998;48.714;9.414;2024-01-15T05:08:58;23.10;;;13.75;;
41263;SDS011;26998;48.714;9.414;2024-01-15T05:11:28;23.17;;;13.32;;
41263;SDS011;26998;48.714;9.414;2024-01-15T05:13:54;25.33;;;13.15;;
41263;SDS011;26998;48.714;9.414;2024-01-15T05:16:21;24.65;;;13.02;;
41263;SDS011;26998;48.714;9.414;2024-01-15T05:18:48;25.50;;;12.90;;
41263;SDS011;26998;48.714;9.414;2024-01-15T05:21:15;24.55;;;12.98;;
41263;SDS011;26998;48.714;9.414;2024-01-15T05:23:45;24.10;;;13.40;;
41263;SDS011;26998;48.714;9.414;2024-01-15T05:26:11;23.70;;;12.32;;
41263;SDS011;26998;48.714;9.414;2024-01-15T05:28:38;18.83;;;11.43;;
41263;SDS011;26998;48.714;9.414;2024-01-15T05:31:06;23.58;;;13.93;;
41263;SDS011;26998;48.714;9.414;2024-01-15T05:33:33;24.73;;;12.55;;
41263;SDS011;26998;48.714;9.414;2024-01-15T05:36:00;22.87;;;11.33;;
41263;SDS011;26998;48.714;9.414;2024-01-15T05:38:27;21.10;;;12.20;;
41263;SDS011;26998;48.714;9.414;2024-01-15T05:40:56;25.60;;;12.70;;
41263;SDS011;26998;48.714;9.414;2024-01-15T05:43:25;21.98;;;12.32;;
41263;SDS011;26998;48.714;9.414;2024-01-15T05:45:52;19.95;;;12.13;;
41263;SDS011;26998;48.714;9.414;2024-01-15T05:48:19;22.60;;;12.98;;
41263;SDS011;26998;48.714;9.414;2024-01-15T05:50:46;22.52;;;11.93;;
41263;SDS011;26998;48.714;9.414;2024-01-15T05:53:12;23.08;;;12.60;;
41263;SDS011;26998;48.714;9.414;2024-01-15T05:55:39;22.50;;;12.18;;
41263;SDS011;26998;48.714;9.414;2024-01-15T05:58:06;24.50;;;13.32;;
41263;SDS011;26998;48.714;9.414;2024-01-15T06:00:32;22.55;;;12.70;;
41263;SDS011;26998;48.714;9.414;2024-01-15T06:03:01;24.25;;;12.95;;
41263;SDS011;26998;48.714;9.414;2024-01-15T06:05:28;21.63;;;12.73;;
41263;SDS011;26998;48.714;9.414;2024-01-15T06:07:55;23.85;;;12.40;;
41263;SDS011;26998;48.714;9.414;2024-01-15T06:10:22;25.17;;;12.02;;
41263;SDS011;26998;48.714;9.414;2024-01-15T06:12:48;23.73;;;12.88;;
41263;SDS011;26998;48.714;9.414;2024-01-15T06:15:15;24.17;;;12.73;;
41263;SDS011;26998;48.714;9.414;2024-01-15T06:17:45;25.95;;;13.05;;
41263;SDS011;26998;48.714;9.414;2024-01-15T06:20:12;23.50;;;12.77;;
41263;SDS011;26998;48.714;9.414;2024-01-15T06:22:39;26.30;;;13.60;;
41263;SDS011;26998;48.714;9.414;2024-01-15T06:25:07;23.92;;;12.88;;
41263;SDS011;26998;48.714;9.414;2024-01-15T06:27:35;26.70;;;13.15;;
41263;SDS011;26998;48.714;9.414;2024-01-15T06:30:01;28.20;;;14.95;;
41263;SDS011;26998;48.714;9.414;2024-01-15T06:32:31;25.58;;;13.57;;
41263;SDS011;26998;48.714;9.414;2024-01-15T06:34:57;23.73;;;13.55;;
41263;SDS011;26998;48.714;9.414;2024-01-15T06:37:26;25.17;;;14.50;;
41263;SDS011;26998;48.714;9.414;2024-01-15T06:39:53;23.33;;;13.25;;
41263;SDS011;26998;48.714;9.414;2024-01-15T06:42:20;25.40;;;15.70;;
41263;SDS011;26998;48.714;9.414;2024-01-15T06:44:48;27.33;;;15.23;;
41263;SDS011;26998;48.714;9.414;2024-01-15T06:47:15;25.50;;;15.13;;
41263;SDS011;26998;48.714;9.414;2024-01-15T06:49:43;23.55;;;14.02;;
41263;SDS011;26998;48.714;9.414;2024-01-15T06:52:10;25.05;;;13.80;;
41263;SDS011;26998;48.714;9.414;2024-01-15T06:54:38;25.65;;;13.43;;
41263;SDS011;26998;48.714;9.414;2024-01-15T06:57:05;22.55;;;12.98;;
41263;SDS011;26998;48.714;9.414;2024-01-15T06:59:35;23.13;;;12.73;;
41263;SDS011;26998;48.714;9.414;2024-01-15T07:02:02;22.70;;;13.10;;
41263;SDS011;26998;48.714;9.414;2024-01-15T07:04:29;24.13;;;13.63;;
41263;SDS011;26998;48.714;9.414;2024-01-15T07:06:55;21.45;;;12.75;;
41263;SDS011;26998;48.714;9.414;2024-01-15T07:09:28;22.75;;;13.43;;
41263;SDS011;26998;48.714;9.414;2024-01-15T07:11:55;21.20;;;12.27;;
41263;SDS011;26998;48.714;9.414;2024-01-15T07:14:24;24.25;;;14.45;;
41263;SDS011;26998;48.714;9.414;2024-01-15T07:16:50;21.33;;;13.07;;
41263;SDS011;26998;48.714;9.414;2024-01-15T07:19:17;20.20;;;12.23;;
41263;SDS011;26998;48.714;9.414;2024-01-15T07:21:44;21.75;;;12.95;;
41263;SDS011;26998;48.714;9.414;2024-01-15T07:24:12;17.30;;;11.40;;
41263;SDS011;26998;48.714;9.414;2024-01-15T07:26:39;21.17;;;12.50;;
41263;SDS011;26998;48.714;9.414;2024-01-15T07:29:06;19.25;;;11.60;;
41263;SDS011;26998;48.714;9.414;2024-01-15T07:31:35;20.27;;;12.45;;
41263;SDS011;26998;48.714;9.414;2024-01-15T07:34:07;22.00;;;13.60;;
41263;SDS011;26998;48.714;9.414;2024-01-15T07:36:34;20.50;;;12.80;;
41263;SDS011;26998;48.714;9.414;2024-01-15T07:39:01;20.77;;;12.15;;
41263;SDS011;26998;48.714;9.414;2024-01-15T07:41:27;24.38;;;13.88;;
41263;SDS011;26998;48.714;9.414;2024-01-15T07:43:54;18.27;;;10.80;;
41263;SDS011;26998;48.714;9.414;2024-01-15T07:46:21;20.27;;;12.27;;
41263;SDS011;26998;48.714;9.414;2024-01-15T07:48:48;20.60;;;13.07;;
41263;SDS011;26998;48.714;9.414;2024-01-15T07:51:17;24.52;;;13.30;;
41263;SDS011;26998;48.714;9.414;2024-01-15T07:53:44;19.80;;;11.70;;
41263;SDS011;26998;48.714;9.414;2024-01-15T07:56:14;18.20;;;11.63;;
41263;SDS011;26998;48.714;9.414;2024-01-15T07:58:41;16.92;;;10.30;;
41263;SDS011;26998;48.714;9.414;2024-01-15T08:01:08;16.65;;;9.73;;
41263;SDS011;26998;48.714;9.414;2024-01-15T08:03:35;16.48;;;10.43;;
41263;SDS011;26998;48.714;9.414;2024-01-15T08:06:02;18.33;;;9.83;;
41263;SDS011;26998;48.714;9.414;2024-01-15T08:08:30;17.05;;;9.88;;
41263;SDS011;26998;48.714;9.414;2024-01-15T08:10:57;16.48;;;10.02;;
41263;SDS011;26998;48.714;9.414;2024-01-15T08:13:26;15.27;;;9.55;;
41263;SDS011;26998;48.714;9.414;2024-01-15T08:15:53;21.30;;;11.15;;
41263;SDS011;26998;48.714;9.414;2024-01-15T08:18:19;17.03;;;9.97;;
41263;SDS011;26998;48.714;9.414;2024-01-15T08:20:48;16.52;;;10.38;;
41263;SDS011;26998;48.714;9.414;2024-01-15T08:23:14;18.00;;;10.20;;
41263;SDS011;26998;48.714;9.414;2024-01-15T08:25:41;14.57;;;8.65;;
41263;SDS011;26998;48.714;9.414;2024-01-15T08:28:08;12.07;;;8.20;;
41263;SDS011;26998;48.714;9.414;2024-01-15T08:30:35;16.10;;;9.57;;
41263;SDS011;26998;48.714;9.414;2024-01-15T08:33:02;15.82;;;9.00;;
41263;SDS011;26998;48.714;9.414;2024-01-15T08:35:36;23.13;;;10.45;;
41263;SDS011;26998;48.714;9.414;2024-01-15T08:38:03;17.65;;;9.73;;
41263;SDS011;26998;48.714;9.414;2024-01-15T08:40:31;19.08;;;9.35;;
41263;SDS011;26998;48.714;9.414;2024-01-15T08:42:58;19.35;;;9.82;;
41263;SDS011;26998;48.714;9.414;2024-01-15T08:45:24;20.25;;;10.68;;
41263;SDS011;26998;48.714;9.414;2024-01-15T08:47:52;18.77;;;10.45;;
41263;SDS011;26998;48.714;9.414;2024-01-15T08:50:20;19.95;;;10.75;;
41263;SDS011;26998;48.714;9.414;2024-01-15T08:52:47;20.70;;;11.97;;
41263;SDS011;26998;48.714;9.414;2024-01-15T08:55:13;23.25;;;11.20;;
41263;SDS011;26998;48.714;9.414;2024-01-15T08:57:40;18.23;;;10.40;;
41263;SDS011;26998;48.714;9.414;2024-01-15T09:00:07;22.17;;;9.90;;
41263;SDS011;26998;48.714;9.414;2024-01-15T09:02:37;19.10;;;9.75;;
41263;SDS011;26998;48.714;9.414;2024-01-15T09:05:04;32.47;;;16.00;;
41263;SDS011;26998;48.714;9.414;2024-01-15T09:07:31;22.97;;;11.20;;
41263;SDS011;26998;48.714;9.414;2024-01-15T09:09:58;21.50;;;11.35;;
41263;SDS011;26998;48.714;9.414;2024-01-15T09:12:26;20.67;;;10.63;;
41263;SDS011;26998;48.714;9.414;2024-01-15T09:14:53;22.58;;;11.20;;
41263;SDS011;26998;48.714;9.414;2024-01-15T09:17:20;20.05;;;10.10;;
41263;SDS011;26998;48.714;9.414;2024-01-15T09:19:49;28.67;;;13.85;;
41263;SDS011;26998;48.714;9.414;2024-01-15T09:22:16;20.05;;;12.75;;
41263;SDS011;26998;48.714;9.414;2024-01-15T09:24:45;24.45;;;13.65;;
41263;SDS011;26998;48.714;9.414;2024-01-15T09:27:12;24.27;;;12.90;;
41263;SDS011;26998;48.714;9.414;2024-01-15T09:29:39;23.67;;;11.40;;
41263;SDS011;26998;48.714;9.414;2024-01-15T09:32:09;29.23;;;16.45;;
41263;SDS011;26998;48.714;9.414;2024-01-15T09:34:36;29.33;;;17.37;;
41263;SDS011;26998;48.714;9.414;2024-01-15T09:37:03;20.52;;;11.48;;
41263;SDS011;26998;48.714;9.414;2024-01-15T09:39:30;19.48;;;12.02;;
41263;SDS011;26998;48.714;9.414;2024-01-15T09:41:58;16.45;;;9.30;;
41263;SDS011;26998;48.714;9.414;2024-01-15T09:44:26;34.47;;;21.80;;
41263;SDS011;26998;48.714;9.414;2024-01-15T09:46:53;21.10;;;11.52;;
41263;SDS011;26998;48.714;9.414;2024-01-15T09:49:21;18.35;;;9.65;;
41263;SDS011;26998;48.714;9.414;2024-01-15T09:51:50;15.35;;;7.47;;
41263;SDS011;26998;48.714;9.414;2024-01-15T09:54:31;10.40;;;6.70;;
41263;SDS011;26998;48.714;9.414;2024-01-15T09:57:00;16.90;;;7.60;;
41263;SDS011;26998;48.714;9.414;2024-01-15T09:59:27;15.53;;;7.50;;
41263;SDS011;26998;48.714;9.414;2024-01-15T10:01:54;16.65;;;8.18;;
41263;SDS011;26998;48.714;9.414;2024-01-15T10:04:22;16.92;;;7.25;;
41263;SDS011;26998;48.714;9.414;2024-01-15T10:06:50;12.85;;;6.75;;
41263;SDS011;26998;48.714;9.414;2024-01-15T10:09:18;16.15;;;7.90;;
41263;SDS011;26998;48.714;9.414;2024-01-15T10:11:45;17.73;;;7.03;;
41263;SDS011;26998;48.714;9.414;2024-01-15T10:14:12;16.77;;;8.23;;
41263;SDS011;26998;48.714;9.414;2024-01-15T10:16:39;16.35;;;7.57;;
41263;SDS011;26998;48.714;9.414;2024-01-15T10:19:09;14.35;;;7.82;;
41263;SDS011;26998;48.714;9.414;2024-01-15T10:21:36;14.68;;;7.65;;
41263;SDS011;26998;48.714;9.414;2024-01-15T10:24:04;15.05;;;6.55;;
41263;SDS011;26998;48.714;9.414;2024-01-15T10:26:31;10.63;;;5.60;;
41263;SDS011;26998;48.714;9.414;2024-01-15T10:28:59;13.68;;;6.38;;
41263;SDS011;26998;48.714;9.414;2024-01-15T10:31:26;17.17;;;7.13;;
41263;SDS011;26998;48.714;9.414;2024-01-15T10:34:09;12.90;;;6.10;;
41263;SDS011;26998;48.714;9.414;2024-01-15T10:36:39;13.45;;;5.85;;
41263;SDS011;26998;48.714;9.414;2024-01-15T10:39:07;16.92;;;6.80;;
41263;SDS011;26998;48.714;9.414;2024-01-15T10:41:34;10.82;;;6.68;;
41263;SDS011;26998;48.714;9.414;2024-01-15T10:44:04;14.13;;;7.75;;
41263;SDS011;26998;48.714;9.414;2024-01-15T10:46:31;15.87;;;7.00;;
41263;SDS011;26998;48.714;9.414;2024-01-15T10:48:58;11.63;;;5.90;;
41263;SDS011;26998;48.714;9.414;2024-01-15T10:51:25;10.68;;;5.47;;
41263;SDS011;26998;48.714;9.414;2024-01-15T10:53:53;16.10;;;6.03;;
41263;SDS011;26998;48.714;9.414;2024-01-15T10:56:21;15.60;;;6.57;;
41263;SDS011;26998;48.714;9.414;2024-01-15T10:58:52;17.23;;;6.55;;
41263;SDS011;26998;48.714;9.414;2024-01-15T11:01:25;22.02;;;6.38;;
41263;SDS011;26998;48.714;9.414;2024-01-15T11:03:56;12.63;;;5.50;;
41263;SDS011;26998;48.714;9.414;2024-01-15T11:06:26;14.73;;;5.97;;
41263;SDS011;26998;48.714;9.414;2024-01-15T11:08:55;9.33;;;5.53;;
41263;SDS011;26998;48.714;9.414;2024-01-15T11:11:22;9.82;;;5.88;;
41263;SDS011;26998;48.714;9.414;2024-01-15T11:13:49;9.90;;;5.40;;
41263;SDS011;26998;48.714;9.414;2024-01-15T11:16:19;9.75;;;5.97;;
41263;SDS011;26998;48.714;9.414;2024-01-15T11:21:24;10.60;;;5.70;;
41263;SDS011;26998;48.714;9.414;2024-01-15T11:26:30;12.88;;;5.93;;
41263;SDS011;26998;48.714;9.414;2024-01-15T11:29:08;11.98;;;6.03;;
41263;SDS011;26998;48.714;9.414;2024-01-15T11:32:00;11.10;;;4.93;;
41263;SDS011;26998;48.714;9.414;2024-01-15T11:37:19;9.75;;;5.93;;
41263;SDS011;26998;48.714;9.414;2024-01-15T11:39:46;10.55;;;5.78;;
41263;SDS011;26998;48.714;9.414;2024-01-15T11:42:13;9.35;;;5.55;;
41263;SDS011;26998;48.714;9.414;2024-01-15T11:44:42;7.85;;;5.18;;
41263;SDS011;26998;48.714;9.414;2024-01-15T11:47:10;11.77;;;5.75;;
41263;SDS011;26998;48.714;9.414;2024-01-15T11:52:31;9.83;;;5.77;;
41263;SDS011;26998;48.714;9.414;2024-01-15T11:55:12;9.67;;;5.50;;
41263;SDS011;26998;48.714;9.414;2024-01-15T11:57:47;10.80;;;6.07;;
41263;SDS011;26998;48.714;9.414;2024-01-15T12:00:17;10.23;;;6.53;;
41263;SDS011;26998;48.714;9.414;2024-01-15T12:02:45;17.25;;;8.13;;
41263;SDS011;26998;48.714;9.414;2024-01-15T12:05:14;17.83;;;10.90;;
41263;SDS011;26998;48.714;9.414;2024-01-15T12:07:44;12.10;;;6.68;;
41263;SDS011;26998;48.714;9.414;2024-01-15T12:10:19;11.30;;;6.13;;
41263;SDS011;26998;48.714;9.414;2024-01-15T12:13:09;15.27;;;9.60;;
41263;SDS011;26998;48.714;9.414;2024-01-15T12:15:41;11.10;;;6.10;;
41263;SDS011;26998;48.714;9.414;2024-01-15T12:18:11;10.00;;;4.72;;
41263;SDS011;26998;48.714;9.414;2024-01-15T12:20:39;9.48;;;5.50;;
41263;SDS011;26998;48.714;9.414;2024-01-15T12:23:06;9.95;;;5.30;;
41263;SDS011;26998;48.714;9.414;2024-01-15T12:25:35;10.75;;;6.43;;
41263;SDS011;26998;48.714;9.414;2024-01-15T12:28:03;14.10;;;6.78;;
41263;SDS011;26998;48.714;9.414;2024-01-15T12:30:30;13.55;;;6.43;;
41263;SDS011;26998;48.714;9.414;2024-01-15T12:33:03;11.17;;;5.63;;
41263;SDS011;26998;48.714;9.414;2024-01-15T12:35:31;10.90;;;6.40;;
41263;SDS011;26998;48.714;9.414;2024-01-15T12:37:59;10.48;;;6.50;;
41263;SDS011;26998;48.714;9.414;2024-01-15T12:40:29;15.37;;;6.00;;
41263;SDS011;26998;48.714;9.414;2024-01-15T12:42:57;9.52;;;5.57;;
41263;SDS011;26998;48.714;9.414;2024-01-15T12:45:24;10.38;;;6.10;;
41263;SDS011;26998;48.714;9.414;2024-01-15T12:47:50;11.75;;;5.90;;
41263;SDS011;26998;48.714;9.414;2024-01-15T12:50:23;9.15;;;5.70;;
41263;SDS011;26998;48.714;9.414;2024-01-15T12:52:50;10.15;;;6.10;;
41263;SDS011;26998;48.714;9.414;2024-01-15T12:55:17;11.40;;;6.20;;
41263;SDS011;26998;48.714;9.414;2024-01-15T12:57:44;11.45;;;7.30;;
41263;SDS011;26998;48.714;9.414;2024-01-15T13:00:12;14.93;;;9.43;;
41263;SDS011;26998;48.714;9.414;2024-01-15T13:02:41;14.98;;;10.02;;
41263;SDS011;26998;48.714;9.414;2024-01-15T13:05:09;11.10;;;8.18;;
41263;SDS011;26998;48.714;9.414;2024-01-15T13:07:41;15.38;;;9.43;;
41263;SDS011;26998;48.714;9.414;2024-01-15T13:10:09;17.73;;;11.05;;
41263;SDS011;26998;48.714;9.414;2024-01-15T13:12:37;15.02;;;9.05;;
41263;SDS011;26998;48.714;9.414;2024-01-15T13:15:05;13.57;;;8.38;;
41263;SDS011;26998;48.714;9.414;2024-01-15T13:17:33;10.68;;;7.07;;
41263;SDS011;26998;48.714;9.414;2024-01-15T13:20:01;12.45;;;7.95;;
41263;SDS011;26998;48.714;9.414;2024-01-15T13:22:29;16.55;;;8.57;;
41263;SDS011;26998;48.714;9.414;2024-01-15T13:24:59;13.93;;;8.48;;
41263;SDS011;26998;48.714;9.414;2024-01-15T13:27:27;12.02;;;7.35;;
41263;SDS011;26998;48.714;9.414;2024-01-15T13:29:55;10.07;;;7.10;;
41263;SDS011;26998;48.714;9.414;2024-01-15T13:32:25;11.25;;;7.28;;
41263;SDS011;26998;48.714;9.414;2024-01-15T13:34:53;9.60;;;6.85;;
41263;SDS011;26998;48.714;9.414;2024-01-15T13:37:24;12.10;;;7.72;;
41263;SDS011;26998;48.714;9.414;2024-01-15T13:39:51;14.73;;;8.25;;
41263;SDS011;26998;48.714;9.414;2024-01-15T13:42:20;11.93;;;8.10;;
41263;SDS011;26998;48.714;9.414;2024-01-15T13:44:50;15.27;;;10.13;;
41263;SDS011;26998;48.714;9.414;2024-01-15T13:47:18;16.20;;;9.43;;
41263;SDS011;26998;48.714;9.414;2024-01-15T13:49:44;16.75;;;9.65;;
41263;SDS011;26998;48.714;9.414;2024-01-15T13:52:12;14.95;;;8.90;;
41263;SDS011;26998;48.714;9.414;2024-01-15T13:54:39;16.20;;;9.85;;
41263;SDS011;26998;48.714;9.414;2024-01-15T13:57:16;17.58;;;10.63;;
41263;SDS011;26998;48.714;9.414;2024-01-15T13:59:43;16.80;;;10.10;;
41263;SDS011;26998;48.714;9.414;2024-01-15T14:02:13;14.45;;;9.60;;
41263;SDS011;26998;48.714;9.414;2024-01-15T14:04:46;14.13;;;9.10;;
41263;SDS011;26998;48.714;9.414;2024-01-15T14:07:14;15.00;;;9.27;;
41263;SDS011;26998;48.714;9.414;2024-01-15T14:09:42;16.23;;;9.57;;
41263;SDS011;26998;48.714;9.414;2024-01-15T14:12:11;15.38;;;9.02;;
41263;SDS011;26998;48.714;9.414;2024-01-15T14:14:38;11.95;;;8.15;;
41263;SDS011;26998;48.714;9.414;2024-01-15T14:17:06;15.05;;;9.57;;
41263;SDS011;26998;48.714;9.414;2024-01-15T14:19:33;13.43;;;8.50;;
41263;SDS011;26998;48.714;9.414;2024-01-15T14:22:03;13.00;;;8.50;;
41263;SDS011;26998;48.714;9.414;2024-01-15T14:24:29;12.00;;;7.93;;
41263;SDS011;26998;48.714;9.414;2024-01-15T14:26:56;12.65;;;8.15;;
41263;SDS011;26998;48.714;9.414;2024-01-15T14:29:23;13.18;;;7.82;;
41263;SDS011;26998;48.714;9.414;2024-01-15T14:31:52;13.35;;;7.68;;
41263;SDS011;26998;48.714;9.414;2024-01-15T14:34:20;13.05;;;7.47;;
41263;SDS011;26998;48.714;9.414;2024-01-15T14:36:52;10.60;;;6.88;;
41263;SDS011;26998;48.714;9.414;2024-01-15T14:39:23;14.00;;;7.70;;
41263;SDS011;26998;48.714;9.414;2024-01-15T14:41:50;15.63;;;7.90;;